createdAt,value
2023-06-04T00:01:48.326Z,100057.44
2023-06-04T00:04:16.168Z,100058.38
2023-06-04T00:06:44.946Z,100064.53
2023-06-04T00:09:12.552Z,100061.28
2023-06-04T00:11:40.288Z,100058.81
2023-06-04T00:14:07.962Z,100059.69
2023-06-04T00:16:38.368Z,100055.56
2023-06-04T00:19:06.083Z,100060.13
2023-06-04T00:21:33.510Z,100058.03
2023-06-04T00:24:01.598Z,100053.03
2023-06-04T00:26:29.281Z,100050.09
2023-06-04T00:28:56.647Z,100049.84
2023-06-04T00:31:24.823Z,100048.50
2023-06-04T00:33:53.078Z,100041.66
2023-06-04T00:36:20.595Z,100040.84
2023-06-04T00:38:48.026Z,100043.09
2023-06-04T00:41:15.682Z,100043.34
2023-06-04T00:43:46.805Z,100043.41
2023-06-04T00:46:19.293Z,100045.22
2023-06-04T00:48:47.185Z,100045.59
2023-06-04T00:51:14.624Z,100047.88
2023-06-04T00:53:42.060Z,100054.97
2023-06-04T00:56:09.788Z,100053.84
2023-06-04T00:58:40.916Z,100053.41
2023-06-04T01:01:16.569Z,100055.84
2023-06-04T01:03:46.314Z,100052.19
2023-06-04T01:06:23.829Z,100043.56
2023-06-04T01:08:55.281Z,100045.62
2023-06-04T01:11:42.884Z,100039.06
2023-06-04T01:14:11.195Z,100030.78
2023-06-04T01:16:50.884Z,100029.34
2023-06-04T01:19:43.145Z,100031.41
2023-06-04T01:22:17.520Z,100035.34
2023-06-04T01:24:45.207Z,100035.75
2023-06-04T01:27:13.326Z,100034.09
2023-06-04T01:29:40.707Z,100033.87
2023-06-04T01:32:08.778Z,100043.41
2023-06-04T01:34:47.596Z,100044.63
2023-06-04T01:37:17.428Z,100054.31
2023-06-04T01:39:45.211Z,100048.78
2023-06-04T01:42:12.820Z,100048.34
2023-06-04T01:44:40.504Z,100045.66
2023-06-04T01:47:07.927Z,100046.47
2023-06-04T01:49:38.198Z,100047.75
2023-06-04T01:52:06.848Z,100042.16
2023-06-04T01:54:35.082Z,100046.69
2023-06-04T01:57:02.526Z,100038.44
2023-06-04T01:59:30.268Z,100036.94
2023-06-04T02:01:57.729Z,100038.78
2023-06-04T02:04:26.311Z,100038.19
2023-06-04T02:06:53.780Z,100041.94
2023-06-04T02:09:22.044Z,100045.69
2023-06-04T02:11:49.750Z,100042.75
2023-06-04T02:14:17.141Z,100043.19
2023-06-04T02:16:44.834Z,100053.94
2023-06-04T02:19:14.017Z,100061.16
2023-06-04T02:21:41.457Z,100054.75
2023-06-04T02:24:09.135Z,100057.25
2023-06-04T02:26:36.779Z,100049.59
2023-06-04T02:29:04.184Z,100049.81
2023-06-04T02:31:32.034Z,100052.28
2023-06-04T02:33:59.496Z,100057.00
2023-06-04T02:36:26.874Z,100046.91
2023-06-04T02:38:54.586Z,100048.78
2023-06-04T02:41:22.422Z,100044.41
2023-06-04T02:43:49.812Z,100049.38
2023-06-04T02:46:17.461Z,100040.66
2023-06-04T02:48:44.878Z,100045.19
2023-06-04T02:51:12.844Z,100047.13
2023-06-04T02:53:40.618Z,100057.44
2023-06-04T02:56:08.014Z,100054.50
2023-06-04T02:58:40.237Z,100054.97
2023-06-04T03:01:08.278Z,100048.91
2023-06-04T03:03:36.889Z,100047.28
2023-06-04T03:06:05.941Z,100044.37
2023-06-04T03:08:33.665Z,100054.28
2023-06-04T03:11:01.129Z,100050.13
2023-06-04T03:13:28.565Z,100052.00
2023-06-04T03:15:56.489Z,100056.75
2023-06-04T03:18:24.035Z,100059.47
2023-06-04T03:20:51.457Z,100049.31
2023-06-04T03:23:19.338Z,100055.94
2023-06-04T03:25:46.862Z,100050.78
2023-06-04T03:28:14.335Z,100055.84
2023-06-04T03:30:42.397Z,100056.59
2023-06-04T03:33:11.021Z,100059.16
2023-06-04T03:35:38.420Z,100055.34
2023-06-04T03:38:06.310Z,100058.03
2023-06-04T03:40:33.939Z,100065.47
2023-06-04T03:43:01.655Z,100064.13
2023-06-04T03:45:30.292Z,100069.34
2023-06-04T03:47:57.857Z,100061.78
2023-06-04T03:50:26.125Z,100062.59
2023-06-04T03:52:54.097Z,100068.16
2023-06-04T03:55:21.581Z,100077.47
2023-06-04T03:57:49.428Z,100068.78
2023-06-04T04:00:17.617Z,100064.00
2023-06-04T04:02:46.441Z,100065.44
2023-06-04T04:05:17.166Z,100074.50
2023-06-04T04:07:45.910Z,100071.22
2023-06-04T04:10:14.112Z,100077.00
2023-06-04T04:12:42.195Z,100074.94
2023-06-04T04:15:10.066Z,100072.75
2023-06-04T04:17:37.893Z,100071.19
2023-06-04T04:20:06.729Z,100078.13
2023-06-04T04:22:35.576Z,100072.66
2023-06-04T04:25:04.104Z,100074.87
2023-06-04T04:27:32.219Z,100066.06
2023-06-04T04:30:01.619Z,100073.00
2023-06-04T04:32:31.941Z,100078.44
2023-06-04T04:34:59.994Z,100069.91
2023-06-04T04:37:27.626Z,100069.31
2023-06-04T04:39:56.148Z,100063.53
2023-06-04T04:42:24.211Z,100057.91
2023-06-04T04:44:51.906Z,100060.47
2023-06-04T04:47:20.207Z,100065.75
2023-06-04T04:49:50.344Z,100064.66
2023-06-04T04:52:18.108Z,100065.78
2023-06-04T04:54:46.679Z,100060.78
2023-06-04T04:57:14.514Z,100066.38
2023-06-04T04:59:42.383Z,100065.50
2023-06-04T05:02:10.186Z,100069.84
2023-06-04T05:04:37.894Z,100077.63
2023-06-04T05:07:05.664Z,100081.88
2023-06-04T05:09:33.350Z,100076.31
2023-06-04T05:12:01.487Z,100077.91
2023-06-04T05:14:29.685Z,100078.84
2023-06-04T05:17:00.438Z,100085.56
2023-06-04T05:19:27.875Z,100080.91
2023-06-04T05:21:55.562Z,100094.25
2023-06-04T05:24:23.347Z,100098.81
2023-06-04T05:26:50.834Z,100104.03
2023-06-04T05:29:18.627Z,100098.66
2023-06-04T05:31:46.599Z,100095.13
2023-06-04T05:34:17.649Z,100095.56
2023-06-04T05:36:45.494Z,100103.69
2023-06-04T05:39:13.463Z,100098.66
2023-06-04T05:41:42.000Z,100105.78
2023-06-04T05:44:10.079Z,100101.09
2023-06-04T05:46:37.992Z,100101.37
2023-06-04T05:49:05.628Z,100106.47
2023-06-04T05:51:32.998Z,100106.13
2023-06-04T05:54:00.728Z,100103.50
2023-06-04T05:56:28.416Z,100107.63
2023-06-04T05:58:56.530Z,100093.38
2023-06-04T06:01:24.733Z,100100.63
2023-06-04T06:03:52.740Z,100095.13
2023-06-04T06:06:21.949Z,100093.59
2023-06-04T06:08:50.674Z,100091.47
2023-06-04T06:11:18.911Z,100099.69
2023-06-04T06:13:46.370Z,100101.41
2023-06-04T06:16:14.080Z,100110.78
2023-06-04T06:18:41.885Z,100100.41
2023-06-04T06:21:09.481Z,100100.25
2023-06-04T06:23:37.682Z,100092.66
2023-06-04T06:26:09.232Z,100096.38
2023-06-04T06:28:38.882Z,100093.59
2023-06-04T06:31:07.522Z,100097.19
2023-06-04T06:33:35.120Z,100100.72
2023-06-04T06:36:02.984Z,100099.88
2023-06-04T06:38:31.071Z,100110.16
2023-06-04T06:40:58.607Z,100110.12
2023-06-04T06:43:26.026Z,100119.81
2023-06-04T06:45:53.667Z,100108.03
2023-06-04T06:48:21.089Z,100106.19
2023-06-04T06:50:48.492Z,100114.56
2023-06-04T06:53:16.124Z,100108.78
2023-06-04T06:55:43.499Z,100108.25
2023-06-04T06:58:10.904Z,100109.09
2023-06-04T07:00:38.623Z,100121.87
2023-06-04T07:03:06.215Z,100116.41
2023-06-04T07:05:33.730Z,100112.69
2023-06-04T07:08:02.911Z,100120.84
2023-06-04T07:10:31.099Z,100109.72
2023-06-04T07:12:58.473Z,100102.28
2023-06-04T07:15:26.090Z,100103.62
2023-06-04T07:17:53.583Z,100110.41
2023-06-04T07:20:20.988Z,100106.09
2023-06-04T07:22:48.755Z,100103.97
2023-06-04T07:25:16.279Z,100112.47
2023-06-04T07:27:43.654Z,100106.13
2023-06-04T07:30:11.446Z,100108.19
2023-06-04T07:32:38.915Z,100111.00
2023-06-04T07:35:06.728Z,100111.19
2023-06-04T07:37:34.394Z,100106.13
2023-06-04T07:40:01.769Z,100106.88
2023-06-04T07:42:29.296Z,100114.38
2023-06-04T07:44:56.961Z,100118.37
2023-06-04T07:47:24.339Z,100106.66
2023-06-04T07:50:01.783Z,100106.00
2023-06-04T07:52:31.581Z,100111.87
2023-06-04T07:54:59.316Z,100108.78
2023-06-04T07:57:26.756Z,100104.56
2023-06-04T07:59:54.458Z,100106.50
2023-06-04T08:02:22.095Z,100106.56
2023-06-04T08:04:50.189Z,100127.56
2023-06-04T08:07:17.621Z,100120.78
2023-06-04T08:09:46.495Z,100116.94
2023-06-04T08:12:14.234Z,100106.50
2023-06-04T08:14:41.593Z,100096.53
2023-06-04T08:17:08.986Z,100095.81
2023-06-04T08:19:43.027Z,100097.28
2023-06-04T08:22:16.996Z,100100.91
2023-06-04T08:24:52.767Z,100101.56
2023-06-04T08:27:40.120Z,100101.06
2023-06-04T08:30:28.650Z,100090.88
2023-06-04T08:33:09.856Z,100109.47
2023-06-04T08:35:46.407Z,100114.50
2023-06-04T08:38:13.825Z,100120.22
2023-06-04T08:40:41.705Z,100132.19
2023-06-04T08:43:09.111Z,100135.94
2023-06-04T08:45:39.953Z,100132.37
2023-06-04T08:48:11.716Z,100131.66
2023-06-04T08:50:39.074Z,100132.81
2023-06-04T08:53:06.525Z,100139.50
2023-06-04T08:55:34.217Z,100137.09
2023-06-04T08:58:01.640Z,100139.22
2023-06-04T09:00:29.032Z,100145.97
2023-06-04T09:02:56.745Z,100143.25
2023-06-04T09:05:24.369Z,100145.37
2023-06-04T09:07:53.804Z,100148.50
2023-06-04T09:10:23.126Z,100147.81
2023-06-04T09:12:50.871Z,100150.72
2023-06-04T09:15:18.264Z,100143.97
2023-06-04T09:17:45.997Z,100141.00
2023-06-04T09:20:20.779Z,100143.41
2023-06-04T09:22:48.599Z,100141.84
2023-06-04T09:25:28.967Z,100138.78
2023-06-04T09:27:58.393Z,100144.00
2023-06-04T09:30:26.188Z,100149.94
2023-06-04T09:32:54.786Z,100140.69
2023-06-04T09:35:22.703Z,100142.56
2023-06-04T09:37:59.798Z,100156.22
2023-06-04T09:40:37.310Z,100153.78
2023-06-04T09:43:04.756Z,100158.91
2023-06-04T09:45:33.328Z,100155.81
2023-06-04T09:48:00.974Z,100166.00
2023-06-04T09:50:33.221Z,100166.44
2023-06-04T09:53:01.383Z,100166.09
2023-06-04T09:55:28.811Z,100163.28
2023-06-04T09:57:56.178Z,100169.16
2023-06-04T10:00:24.914Z,100171.12
2023-06-04T10:02:57.696Z,100162.09
2023-06-04T10:05:25.998Z,100169.59
2023-06-04T10:07:53.602Z,100172.31
2023-06-04T10:10:24.134Z,100176.69
2023-06-04T10:12:56.226Z,100181.91
2023-06-04T10:15:23.612Z,100166.91
2023-06-04T10:17:51.080Z,100169.88
2023-06-04T10:20:19.297Z,100173.19
2023-06-04T10:22:46.892Z,100167.56
2023-06-04T10:25:14.324Z,100160.09
2023-06-04T10:27:42.033Z,100159.06
2023-06-04T10:30:09.865Z,100169.78
2023-06-04T10:32:37.326Z,100157.28
2023-06-04T10:35:08.837Z,100162.09
2023-06-04T10:37:36.237Z,100169.41
2023-06-04T10:40:06.077Z,100157.62
2023-06-04T10:42:41.658Z,100169.34
2023-06-04T10:45:09.651Z,100165.87
2023-06-04T10:47:40.763Z,100153.44
2023-06-04T10:50:12.426Z,100165.97
2023-06-04T10:52:51.354Z,100162.19
2023-06-04T10:55:18.791Z,100164.19
2023-06-04T10:57:57.072Z,100163.19
2023-06-04T11:00:41.702Z,100157.28
2023-06-04T11:03:11.854Z,100165.19
2023-06-04T11:05:43.679Z,100165.97
2023-06-04T11:08:12.440Z,100156.66
2023-06-04T11:10:44.799Z,100158.84
2023-06-04T11:13:12.528Z,100163.19
2023-06-04T11:15:42.293Z,100161.00
2023-06-04T11:18:14.489Z,100161.16
2023-06-04T11:20:43.589Z,100155.66
2023-06-04T11:23:12.907Z,100153.28
2023-06-04T11:25:40.577Z,100156.53
2023-06-04T11:28:08.283Z,100159.31
2023-06-04T11:30:35.730Z,100155.72
2023-06-04T11:33:06.763Z,100150.62
2023-06-04T11:35:41.513Z,100151.50
2023-06-04T11:38:10.333Z,100160.53
2023-06-04T11:40:38.236Z,100160.69
2023-06-04T11:43:05.605Z,100158.94
2023-06-04T11:45:33.049Z,100159.41
2023-06-04T11:48:00.832Z,100165.44
2023-06-04T11:50:29.030Z,100174.78
2023-06-04T11:52:56.505Z,100171.41
2023-06-04T11:55:24.214Z,100169.72
2023-06-04T11:57:51.882Z,100162.63
2023-06-04T12:00:20.214Z,100169.25
2023-06-04T12:02:55.533Z,100176.91
2023-06-04T12:05:24.771Z,100165.94
2023-06-04T12:07:52.575Z,100169.91
2023-06-04T12:10:20.733Z,100163.16
2023-06-04T12:12:48.213Z,100170.47
2023-06-04T12:15:20.413Z,100169.06
2023-06-04T12:17:52.352Z,100167.94
2023-06-04T12:20:32.481Z,100170.53
2023-06-04T12:22:59.865Z,100159.84
2023-06-04T12:25:28.936Z,100168.34
2023-06-04T12:27:56.347Z,100162.78
2023-06-04T12:30:23.818Z,100157.81
2023-06-04T12:32:51.924Z,100154.97
2023-06-04T12:35:21.142Z,100160.84
2023-06-04T12:37:48.538Z,100160.13
2023-06-04T12:40:16.231Z,100156.88
2023-06-04T12:42:44.272Z,100155.94
2023-06-04T12:45:11.843Z,100152.28
2023-06-04T12:47:39.674Z,100141.53
2023-06-04T12:50:07.373Z,100145.37
2023-06-04T12:52:34.798Z,100142.97
2023-06-04T12:55:02.476Z,100136.75
2023-06-04T12:57:29.883Z,100138.22
2023-06-04T12:59:58.374Z,100141.25
2023-06-04T13:02:26.322Z,100145.56
2023-06-04T13:04:55.703Z,100139.44
2023-06-04T13:07:24.028Z,100130.97
2023-06-04T13:09:52.616Z,100130.62
2023-06-04T13:12:20.082Z,100129.25
2023-06-04T13:14:47.519Z,100130.94
2023-06-04T13:17:22.937Z,100116.91
2023-06-04T13:19:51.213Z,100117.28
2023-06-04T13:22:18.929Z,100112.03
2023-06-04T13:24:46.394Z,100115.37
2023-06-04T13:27:13.816Z,100109.88
2023-06-04T13:29:43.733Z,100116.62
2023-06-04T13:32:12.310Z,100113.03
2023-06-04T13:34:39.883Z,100108.81
2023-06-04T13:37:08.104Z,100104.38
2023-06-04T13:39:35.528Z,100095.09
2023-06-04T13:42:02.934Z,100100.03
2023-06-04T13:44:30.662Z,100088.28
2023-06-04T13:46:59.761Z,100103.12
2023-06-04T13:49:27.166Z,100093.91
2023-06-04T13:51:54.781Z,100102.00
2023-06-04T13:54:22.221Z,100091.87
2023-06-04T13:56:49.673Z,100089.31
2023-06-04T13:59:17.346Z,100090.06
2023-06-04T14:01:44.911Z,100094.63
2023-06-04T14:04:12.761Z,100091.06
2023-06-04T14:06:40.174Z,100088.41
2023-06-04T14:09:08.006Z,100087.63
2023-06-04T14:11:36.023Z,100077.97
2023-06-04T14:14:03.451Z,100080.28
2023-06-04T14:16:31.000Z,100080.53
2023-06-04T14:18:58.766Z,100080.63
2023-06-04T14:21:27.209Z,100085.28
2023-06-04T14:23:54.727Z,100077.56
2023-06-04T14:26:23.452Z,100082.47
2023-06-04T14:28:51.001Z,100087.78
2023-06-04T14:31:18.469Z,100087.50
2023-06-04T14:33:46.129Z,100086.53
2023-06-04T14:36:13.536Z,100084.50
2023-06-04T14:38:40.973Z,100083.03
2023-06-04T14:41:08.762Z,100079.44
2023-06-04T14:43:36.356Z,100081.25
2023-06-04T14:46:03.781Z,100067.47
2023-06-04T14:48:31.609Z,100077.37
2023-06-04T14:50:59.044Z,100075.22
2023-06-04T14:53:26.440Z,100078.53
2023-06-04T14:55:54.225Z,100063.87
2023-06-04T14:58:21.638Z,100071.25
2023-06-04T15:00:49.093Z,100069.09
2023-06-04T15:03:16.813Z,100061.59
2023-06-04T15:05:44.277Z,100065.75
2023-06-04T15:08:11.743Z,100061.34
2023-06-04T15:10:39.373Z,100057.94
2023-06-04T15:13:06.817Z,100052.66
2023-06-04T15:15:34.199Z,100048.25
2023-06-04T15:18:01.932Z,100048.91
2023-06-04T15:20:29.660Z,100047.66
2023-06-04T15:22:57.065Z,100045.38
2023-06-04T15:25:24.739Z,100044.09
2023-06-04T15:27:52.230Z,100051.38
2023-06-04T15:30:21.602Z,100039.75
2023-06-04T15:32:49.359Z,100041.88
2023-06-04T15:35:16.861Z,100045.44
2023-06-04T15:37:44.299Z,100041.47
2023-06-04T15:40:12.160Z,100045.34
2023-06-04T15:42:39.553Z,100038.31
2023-06-04T15:45:07.527Z,100029.69
2023-06-04T15:47:35.271Z,100031.31
2023-06-04T15:50:02.815Z,100026.38
2023-06-04T15:52:30.235Z,100028.97
2023-06-04T15:54:57.905Z,100036.47
2023-06-04T15:57:25.346Z,100023.19
2023-06-04T15:59:52.764Z,100020.41
2023-06-04T16:02:20.381Z,100017.72
2023-06-04T16:04:48.036Z,100022.63
2023-06-04T16:07:15.703Z,100025.59
2023-06-04T16:09:43.109Z,100020.00
2023-06-04T16:12:11.080Z,100016.97
2023-06-04T16:14:38.481Z,100016.87
2023-06-04T16:17:06.121Z,100021.22
2023-06-04T16:19:33.802Z,100014.72
2023-06-04T16:22:01.260Z,100016.47
2023-06-04T16:24:28.708Z,100021.00
2023-06-04T16:26:56.395Z,100020.31
2023-06-04T16:29:23.863Z,100020.22
2023-06-04T16:31:51.468Z,100024.31
2023-06-04T16:34:19.259Z,100027.13
2023-06-04T16:36:46.655Z,100031.34
2023-06-04T16:39:14.054Z,100028.38
2023-06-04T16:41:41.789Z,100028.91
2023-06-04T16:44:09.185Z,100036.38
2023-06-04T16:46:36.957Z,100032.63
2023-06-04T16:49:04.788Z,100031.00
2023-06-04T16:51:32.235Z,100028.66
2023-06-04T16:53:59.625Z,100032.31
2023-06-04T16:56:27.325Z,100035.41
2023-06-04T16:58:54.986Z,100030.69
2023-06-04T17:01:22.434Z,100021.59
2023-06-04T17:03:52.635Z,100025.00
2023-06-04T17:06:20.520Z,100025.84
2023-06-04T17:08:47.961Z,100021.03
2023-06-04T17:11:15.798Z,100014.84
2023-06-04T17:13:43.244Z,100022.88
2023-06-04T17:16:10.792Z,100024.28
2023-06-04T17:18:39.131Z,100020.16
2023-06-04T17:21:06.632Z,100025.38
2023-06-04T17:23:34.135Z,100021.69
2023-06-04T17:26:01.787Z,100021.81
2023-06-04T17:28:29.214Z,100017.25
2023-06-04T17:30:56.670Z,100025.50
2023-06-04T17:33:24.496Z,100027.81
2023-06-04T17:35:51.882Z,100019.87
2023-06-04T17:38:19.272Z,100025.56
2023-06-04T17:40:46.971Z,100027.00
2023-06-04T17:43:14.512Z,100022.19
2023-06-04T17:45:42.205Z,100031.56
2023-06-04T17:48:09.959Z,100036.69
2023-06-04T17:50:37.379Z,100037.56
2023-06-04T17:53:04.824Z,100038.38
2023-06-04T17:55:32.540Z,100035.59
2023-06-04T17:57:59.918Z,100038.56
2023-06-04T18:00:27.291Z,100038.69
2023-06-04T18:02:54.653Z,100036.47
2023-06-04T18:05:22.348Z,100042.72
2023-06-04T18:07:51.030Z,100046.78
2023-06-04T18:10:18.415Z,100042.19
2023-06-04T18:12:46.628Z,100040.28
2023-06-04T18:15:16.820Z,100039.75
2023-06-04T18:17:44.361Z,100042.19
2023-06-04T18:20:12.176Z,100046.28
2023-06-04T18:22:39.888Z,100039.94
2023-06-04T18:25:09.061Z,100038.78
2023-06-04T18:27:37.212Z,100042.69
2023-06-04T18:30:05.147Z,100050.00
2023-06-04T18:32:32.628Z,100048.81
2023-06-04T18:35:00.382Z,100047.31
2023-06-04T18:37:27.864Z,100049.38
2023-06-04T18:39:55.280Z,100048.81
2023-06-04T18:42:30.822Z,100046.47
2023-06-04T18:45:00.575Z,100053.53
2023-06-04T18:47:28.652Z,100056.75
2023-06-04T18:49:56.924Z,100062.66
2023-06-04T18:52:24.443Z,100067.28
2023-06-04T18:54:52.100Z,100073.22
2023-06-04T18:57:19.663Z,100069.44
2023-06-04T18:59:47.070Z,100078.56
2023-06-04T19:02:15.151Z,100069.38
2023-06-04T19:04:42.524Z,100084.06
2023-06-04T19:07:09.915Z,100075.53
2023-06-04T19:09:37.601Z,100077.59
2023-06-04T19:12:05.148Z,100079.94
2023-06-04T19:14:32.541Z,100070.56
2023-06-04T19:17:03.451Z,100074.66
2023-06-04T19:19:31.037Z,100071.75
2023-06-04T19:21:59.307Z,100076.84
2023-06-04T19:24:27.020Z,100082.16
2023-06-04T19:26:54.430Z,100074.22
2023-06-04T19:29:21.814Z,100085.44
2023-06-04T19:31:49.536Z,100085.03
2023-06-04T19:34:17.047Z,100080.09
2023-06-04T19:36:44.475Z,100074.69
2023-06-04T19:39:12.163Z,100086.91
2023-06-04T19:41:39.534Z,100085.72
2023-06-04T19:44:06.908Z,100086.94
2023-06-04T19:46:34.691Z,100095.75
2023-06-04T19:49:02.312Z,100087.78
2023-06-04T19:51:29.787Z,100095.84
2023-06-04T19:53:57.465Z,100099.53
2023-06-04T19:56:25.045Z,100089.66
2023-06-04T19:58:52.585Z,100100.34
2023-06-04T20:01:20.374Z,100097.41
2023-06-04T20:03:49.869Z,100099.78
2023-06-04T20:06:17.812Z,100101.09
2023-06-04T20:08:45.880Z,100097.66
2023-06-04T20:11:13.789Z,100103.19
2023-06-04T20:13:41.912Z,100095.22
2023-06-04T20:16:09.558Z,100097.44
2023-06-04T20:18:37.430Z,100093.97
2023-06-04T20:21:05.008Z,100095.94
2023-06-04T20:23:32.423Z,100091.56
2023-06-04T20:26:00.585Z,100095.22
2023-06-04T20:28:29.955Z,100090.31
2023-06-04T20:30:57.421Z,100096.41
2023-06-04T20:33:26.933Z,100099.06
2023-06-04T20:35:54.344Z,100091.59
2023-06-04T20:38:21.796Z,100092.50
2023-06-04T20:40:49.554Z,100092.38
2023-06-04T20:43:17.034Z,100085.03
2023-06-04T20:45:44.509Z,100091.78
2023-06-04T20:48:12.286Z,100095.09
2023-06-04T20:50:39.695Z,100097.91
2023-06-04T20:53:07.146Z,100091.37
2023-06-04T20:55:36.172Z,100089.13
2023-06-04T20:58:03.689Z,100088.13
2023-06-04T21:00:31.895Z,100091.91
2023-06-04T21:02:59.731Z,100086.78
2023-06-04T21:05:27.250Z,100088.31
2023-06-04T21:07:59.855Z,100083.69
2023-06-04T21:10:29.154Z,100086.75
2023-06-04T21:12:56.570Z,100085.84
2023-06-04T21:15:24.003Z,100091.06
2023-06-04T21:17:51.890Z,100088.41
2023-06-04T21:20:19.340Z,100088.34
2023-06-04T21:22:46.772Z,100079.34
2023-06-04T21:25:14.441Z,100083.38
2023-06-04T21:27:41.873Z,100080.03
2023-06-04T21:30:09.574Z,100085.81
2023-06-04T21:32:37.310Z,100081.94
2023-06-04T21:35:05.085Z,100084.31
2023-06-04T21:37:32.482Z,100090.19
2023-06-04T21:40:00.202Z,100083.69
2023-06-04T21:42:27.632Z,100097.38
2023-06-04T21:44:55.641Z,100090.75
2023-06-04T21:47:23.696Z,100094.59
2023-06-04T21:49:51.226Z,100091.69
2023-06-04T21:52:25.751Z,100091.47
2023-06-04T21:54:53.830Z,100096.44
2023-06-04T21:57:21.334Z,100099.22
2023-06-04T21:59:48.847Z,100091.31
2023-06-04T22:02:16.636Z,100099.38
2023-06-04T22:04:44.301Z,100102.06
2023-06-04T22:07:11.714Z,100096.50
2023-06-04T22:09:39.406Z,100095.75
2023-06-04T22:12:07.799Z,100097.09
2023-06-04T22:14:36.384Z,100106.81
2023-06-04T22:17:03.947Z,100107.81
2023-06-04T22:19:31.630Z,100112.09
2023-06-04T22:21:59.021Z,100112.19
2023-06-04T22:24:26.536Z,100108.31
2023-06-04T22:26:54.259Z,100115.03
2023-06-04T22:29:21.700Z,100106.06
2023-06-04T22:31:49.345Z,100098.16
2023-06-04T22:34:17.156Z,100105.06
2023-06-04T22:36:45.564Z,100107.41
2023-06-04T22:39:13.010Z,100103.03
2023-06-04T22:41:40.847Z,100111.09
2023-06-04T22:44:08.242Z,100102.47
2023-06-04T22:46:35.663Z,100102.69
2023-06-04T22:49:03.449Z,100096.66
2023-06-04T22:51:31.039Z,100104.41
2023-06-04T22:53:58.769Z,100098.94
2023-06-04T22:56:26.438Z,100103.34
2023-06-04T22:58:53.886Z,100101.78
2023-06-04T23:01:21.302Z,100102.06
2023-06-04T23:03:49.098Z,100100.84
2023-06-04T23:06:16.634Z,100099.28
2023-06-04T23:08:44.067Z,100097.87
2023-06-04T23:11:13.126Z,100098.00
2023-06-04T23:13:40.581Z,100091.56
2023-06-04T23:16:08.093Z,100093.50
2023-06-04T23:18:35.848Z,100083.00
2023-06-04T23:21:03.334Z,100088.84
2023-06-04T23:23:31.165Z,100088.41
2023-06-04T23:25:58.945Z,100084.66
2023-06-04T23:28:26.331Z,100092.63
2023-06-04T23:30:53.716Z,100088.03
2023-06-04T23:33:21.380Z,100077.22
2023-06-04T23:35:49.395Z,100076.56
2023-06-04T23:38:16.848Z,100080.31
2023-06-04T23:40:44.628Z,100075.97
2023-06-04T23:43:12.014Z,100088.06
2023-06-04T23:45:39.501Z,100088.88
2023-06-04T23:48:07.283Z,100094.03
2023-06-04T23:50:34.780Z,100082.38
2023-06-04T23:53:02.361Z,100077.94
2023-06-04T23:55:30.082Z,100075.41
2023-06-04T23:57:57.736Z,100084.31
